Time;durP1;ratioP1;P1;durP2;ratioP2;P2;SDS_P1;SDS_P2;PMS_P1;PMS_P2;Temp;Humidity;BMP_temperature;BMP_pressure;BME280_temperature;BME280_humidity;BME280_pressure;Samples;Min_cycle;Max_cycle;Signal;HPM_P1;HPM_P2
2021/12/27 00:02:04;;;;;;;2.13;1.58;;;;;;;-11.60;71.23;98600.09;4882884;29;20064;-68
2021/12/27 00:04:31;;;;;;;3.80;2.15;;;;;;;-11.60;72.48;98603.59;4886155;29;20524;-67
2021/12/27 00:06:58;;;;;;;3.58;1.88;;;;;;;-11.62;72.60;98607.56;4884174;29;20127;-67
2021/12/27 00:09:25;;;;;;;4.60;2.15;;;;;;;-11.66;71.76;98609.84;4883029;29;20049;-67
2021/12/27 00:11:52;;;;;;;4.72;1.92;;;;;;;-11.65;72.32;98616.88;4883757;29;20547;-68
2021/12/27 00:14:18;;;;;;;0.50;0.50;;;;;;;-11.66;72.47;98606.34;4883095;29;20246;-67
2021/12/27 00:16:45;;;;;;;2.00;1.38;;;;;;;-11.71;71.73;98609.69;4887914;29;20113;-67
2021/12/27 00:19:12;;;;;;;4.18;1.90;;;;;;;-11.72;72.59;98618.75;4884034;29;20053;-67
2021/12/27 00:21:39;;;;;;;1.67;1.20;;;;;;;-11.68;71.79;98614.63;4897194;29;20053;-67
2021/12/27 00:24:06;;;;;;;1.75;1.10;;;;;;;-11.65;71.48;98624.91;4883978;29;20056;-67
2021/12/27 00:26:34;;;;;;;5.57;1.00;;;;;;;-11.63;71.43;98620.13;4882954;29;20092;-60
2021/12/27 00:29:00;;;;;;;2.83;1.35;;;;;;;-11.60;71.53;98619.69;4883160;29;20053;-59
2021/12/27 00:31:27;;;;;;;2.97;1.45;;;;;;;-11.61;72.55;98619.91;4882417;29;20083;-58
2021/12/27 00:33:54;;;;;;;2.80;2.15;;;;;;;-11.63;72.22;98613.97;4883559;29;20048;-59
2021/12/27 00:36:21;;;;;;;4.78;1.98;;;;;;;-11.64;72.12;98623.88;4882138;29;20061;-59
2021/12/27 00:38:48;;;;;;;3.88;1.83;;;;;;;-11.62;71.86;98637.06;4884097;29;20564;-57
2021/12/27 00:41:15;;;;;;;3.60;2.50;;;;;;;-11.63;71.85;98635.44;4892943;29;20061;-59
2021/12/27 00:43:42;;;;;;;1.38;1.10;;;;;;;-11.58;71.82;98638.25;4883884;29;20105;-57
2021/12/27 00:46:09;;;;;;;5.65;1.85;;;;;;;-11.57;71.18;98642.59;4882308;29;20421;-56
2021/12/27 00:48:36;;;;;;;4.55;2.40;;;;;;;-11.53;71.81;98630.38;4884378;29;20139;-59
2021/12/27 00:51:03;;;;;;;2.30;1.35;;;;;;;-11.52;71.93;98640.09;4883595;29;20047;-58
2021/12/27 00:53:30;;;;;;;4.72;1.35;;;;;;;-11.48;72.03;98641.31;4882329;29;20112;-56
2021/12/27 00:55:57;;;;;;;1.80;1.20;;;;;;;-11.44;72.28;98645.19;4882936;29;20075;-60
2021/12/27 00:58:24;;;;;;;1.60;1.13;;;;;;;-11.44;72.26;98650.56;4881968;29;20053;-60
2021/12/27 01:00:51;;;;;;;1.42;1.10;;;;;;;-11.42;71.00;98653.84;4883375;29;20049;-59
2021/12/27 01:03:20;;;;;;;5.35;1.90;;;;;;;-11.44;70.68;98658.59;4882105;29;20501;-55
2021/12/27 01:05:47;;;;;;;3.65;2.03;;;;;;;-11.43;72.10;98657.59;4883012;29;20417;-58
2021/12/27 01:08:15;;;;;;;3.20;1.35;;;;;;;-11.39;72.05;98658.78;4888263;29;20568;-56
2021/12/27 01:13:22;;;;;;;1.48;1.25;;;;;;;-11.32;71.50;98664.94;4882044;29;20103;-56
2021/12/27 01:18:40;;;;;;;2.35;1.70;;;;;;;-11.34;71.75;98669.72;4887071;29;20059;-59
2021/12/27 01:21:07;;;;;;;4.00;2.42;;;;;;;-11.30;71.79;98665.53;4907053;29;20148;-59
2021/12/27 01:23:34;;;;;;;7.50;2.70;;;;;;;-11.26;72.11;98677.47;4881779;29;20084;-58
2021/12/27 01:26:01;;;;;;;6.30;2.80;;;;;;;-11.19;72.14;98680.16;4882696;29;20057;-59
2021/12/27 01:28:28;;;;;;;6.65;2.78;;;;;;;-11.14;72.05;98683.00;4881599;29;20497;-56
2021/12/27 01:30:55;;;;;;;2.03;1.50;;;;;;;-11.20;71.26;98687.34;4882545;29;20060;-57
2021/12/27 01:33:23;;;;;;;2.75;1.42;;;;;;;-11.27;71.24;98683.06;4881234;29;20061;-58
2021/12/27 01:35:51;;;;;;;2.83;1.92;;;;;;;-11.26;70.65;98685.53;4882777;29;20059;-58
2021/12/27 01:38:19;;;;;;;4.30;2.28;;;;;;;-11.21;72.34;98687.56;4881133;29;20056;-59
2021/12/27 01:40:49;;;;;;;2.65;1.48;;;;;;;-11.15;72.38;98695.59;4882914;29;20135;-57
2021/12/27 01:43:24;;;;;;;0.93;0.70;;;;;;;-11.13;71.91;98692.69;4881066;29;20053;-60
2021/12/27 01:46:13;;;;;;;3.83;1.85;;;;;;;-11.16;71.98;98693.97;4881451;29;20454;-55
2021/12/27 01:48:44;;;;;;;3.25;1.80;;;;;;;-11.15;71.50;98692.91;4879787;29;20057;-57
2021/12/27 01:51:13;;;;;;;1.50;1.02;;;;;;;-11.17;70.98;98694.97;4881482;29;20067;-62
2021/12/27 01:53:42;;;;;;;3.08;1.88;;;;;;;-11.17;70.85;98697.66;4896640;29;20159;-54
2021/12/27 01:56:11;;;;;;;4.95;2.10;;;;;;;-11.18;72.04;98693.34;4881665;29;20053;-58
2021/12/27 01:58:39;;;;;;;3.58;1.75;;;;;;;-11.18;71.92;98690.66;4880968;29;20048;-54
2021/12/27 02:01:09;;;;;;;2.72;1.80;;;;;;;-11.12;71.28;98703.22;4882398;29;20049;-57
2021/12/27 02:03:38;;;;;;;5.28;2.53;;;;;;;-11.08;71.16;98709.78;4880897;29;20097;-59
2021/12/27 02:06:06;;;;;;;3.95;1.65;;;;;;;-11.05;72.09;98703.19;4887030;29;20458;-57
2021/12/27 02:08:35;;;;;;;3.58;1.58;;;;;;;-11.07;70.84;98713.31;4880971;29;20501;-60
2021/12/27 02:11:03;;;;;;;4.03;1.70;;;;;;;-11.09;71.16;98715.38;4881765;29;20428;-60
2021/12/27 02:13:30;;;;;;;3.75;2.20;;;;;;;-11.11;71.33;98715.59;4880595;29;20056;-59
2021/12/27 02:15:57;;;;;;;3.15;1.25;;;;;;;-11.06;71.31;98717.63;4880554;29;20056;-56
2021/12/27 02:18:24;;;;;;;6.15;2.53;;;;;;;-11.11;70.96;98726.31;4880615;29;20045;-68
2021/12/27 02:20:51;;;;;;;1.60;1.27;;;;;;;-11.17;71.48;98726.38;4882004;29;20076;-67
2021/12/27 02:23:18;;;;;;;2.50;1.70;;;;;;;-11.20;71.81;98724.94;4880637;29;20139;-68
2021/12/27 02:25:49;;;;;;;2.05;1.60;;;;;;;-11.18;71.20;98728.22;4881816;29;20052;-70
2021/12/27 02:28:18;;;;;;;4.82;2.50;;;;;;;-11.17;72.12;98731.75;4880229;29;20076;-68
2021/12/27 02:30:49;;;;;;;2.50;1.83;;;;;;;-11.13;72.26;98722.22;4883222;29;20445;-67
2021/12/27 02:33:16;;;;;;;3.80;1.58;;;;;;;-11.10;71.70;98722.63;4880165;29;20065;-68
2021/12/27 02:35:49;;;;;;;6.57;2.42;;;;;;;-11.12;71.56;98734.59;4881431;29;20425;-67
2021/12/27 02:38:23;;;;;;;2.05;1.33;;;;;;;-11.09;71.63;98735.00;4880368;29;20080;-67
2021/12/27 02:40:51;;;;;;;4.90;2.35;;;;;;;-11.05;70.97;98744.25;4882146;29;20388;-68
2021/12/27 02:43:21;;;;;;;3.53;1.70;;;;;;;-11.04;71.29;98745.94;4880027;29;20056;-67
2021/12/27 02:45:52;;;;;;;5.90;1.48;;;;;;;-11.02;71.27;98741.16;4880149;29;20060;-68
2021/12/27 02:48:22;;;;;;;2.45;1.35;;;;;;;-10.97;71.20;98752.06;4879888;29;20052;-68
2021/12/27 02:50:49;;;;;;;;;;;;;;;-10.95;71.37;98758.06;4895362;29;20063;-67
2021/12/27 02:53:17;;;;;;;5.30;2.65;;;;;;;-10.91;71.47;98761.94;4880323;29;19927;-68
2021/12/27 02:55:47;;;;;;;2.53;1.08;;;;;;;-10.87;71.91;98760.47;4880836;29;20524;-67
2021/12/27 02:58:14;;;;;;;5.20;2.53;;;;;;;-10.91;71.99;98763.81;4888055;29;20053;-68
2021/12/27 03:01:05;;;;;;;3.80;1.83;;;;;;;-10.89;71.38;98777.84;4884322;29;20053;-68
2021/12/27 03:03:32;;;;;;;4.63;1.95;;;;;;;-10.90;72.19;98776.22;4880309;29;20048;-69
2021/12/27 03:06:00;;;;;;;3.05;1.30;;;;;;;-10.91;71.53;98770.00;4880922;29;20547;-68
2021/12/27 03:08:27;;;;;;;5.32;2.15;;;;;;;-10.85;71.54;98779.88;4880003;29;20156;-66
2021/12/27 03:10:58;;;;;;;5.60;2.50;;;;;;;-10.83;71.21;98780.50;4879975;29;20049;-69
2021/12/27 03:13:26;;;;;;;;;;;;;;;-10.80;71.14;98788.13;4880236;29;20060;-68
2021/12/27 03:15:58;;;;;;;4.70;2.45;;;;;;;-10.75;72.08;98790.16;4881539;29;19935;-68
2021/12/27 03:18:26;;;;;;;4.72;2.15;;;;;;;-10.78;70.86;98788.72;4879679;29;20080;-67
2021/12/27 03:20:54;;;;;;;5.15;2.80;;;;;;;-10.80;71.44;98798.88;4881178;29;20053;-68
2021/12/27 03:23:21;;;;;;;3.90;1.88;;;;;;;-10.81;71.58;98791.03;4879659;29;20065;-68
2021/12/27 03:25:49;;;;;;;3.80;2.03;;;;;;;-10.78;70.98;98802.16;4881173;29;20461;-67
2021/12/27 03:28:17;;;;;;;3.22;1.88;;;;;;;-10.76;70.52;98799.25;4883379;29;20057;-68
2021/12/27 03:30:45;;;;;;;2.40;1.10;;;;;;;-10.76;71.78;98805.44;4880324;29;20048;-68
2021/12/27 03:33:14;;;;;;;8.40;2.42;;;;;;;-10.73;71.86;98804.19;4879721;29;20064;-68
2021/12/27 03:35:51;;;;;;;5.45;2.00;;;;;;;-10.70;71.84;98819.88;4880002;29;20057;-68
2021/12/27 03:38:19;;;;;;;5.47;2.33;;;;;;;-10.70;71.69;98812.66;4889040;29;20144;-68
2021/12/27 03:40:48;;;;;;;2.85;1.55;;;;;;;-10.74;71.26;98814.13;4880480;29;20533;-69
2021/12/27 03:43:15;;;;;;;8.57;1.47;;;;;;;-10.73;71.78;98837.25;4879515;29;20140;-67
2021/12/27 03:45:42;;;;;;;3.13;1.70;;;;;;;-10.75;71.40;98812.47;4878512;29;20049;-62
2021/12/27 03:48:11;;;;;;;2.85;1.85;;;;;;;-10.83;71.23;98836.91;4880252;29;20099;-60
2021/12/27 03:50:38;;;;;;;8.80;2.42;;;;;;;-10.86;71.37;98834.66;4878853;29;20412;-61
2021/12/27 03:53:07;;;;;;;6.22;1.65;;;;;;;-10.84;71.56;98851.34;4880707;29;20497;-62
2021/12/27 03:55:35;;;;;;;6.45;1.75;;;;;;;-10.80;71.59;98836.47;4879662;29;20052;-62
2021/12/27 03:58:11;;;;;;;0.90;0.70;;;;;;;-10.80;71.60;98849.91;4880692;29;20053;-61
2021/12/27 04:00:49;;;;;;;1.20;0.90;;;;;;;-10.88;71.11;98854.66;4881024;29;20468;-60
2021/12/27 04:03:17;;;;;;;3.80;2.15;;;;;;;-10.89;71.98;98856.56;4883267;29;20053;-59
2021/12/27 04:05:45;;;;;;;6.38;2.55;;;;;;;-10.90;72.01;98859.44;4883337;29;20045;-62
2021/12/27 04:08:13;;;;;;;2.58;1.40;;;;;;;-10.90;72.47;98871.00;4883699;29;20053;-60
2021/12/27 04:10:41;;;;;;;8.88;2.40;;;;;;;-10.89;71.86;98871.84;4883420;29;20059;-63
2021/12/27 04:13:10;;;;;;;3.78;1.80;;;;;;;-10.88;72.67;98866.25;4884223;29;20155;-57
2021/12/27 04:15:39;;;;;;;2.10;0.90;;;;;;;-10.88;72.25;98868.94;4883183;29;20516;-59
2021/12/27 04:18:11;;;;;;;4.63;2.30;;;;;;;-10.90;72.83;98881.75;4883769;29;20084;-59
2021/12/27 04:20:38;;;;;;;7.57;2.10;;;;;;;-10.88;72.59;98877.00;4882888;29;20103;-57
2021/12/27 04:23:06;;;;;;;4.45;2.13;;;;;;;-10.85;72.32;98879.25;4883680;29;20057;-56
2021/12/27 04:25:33;;;;;;;6.30;3.05;;;;;;;-10.84;72.19;98882.78;4883162;29;20059;-61
2021/12/27 04:28:00;;;;;;;5.55;2.47;;;;;;;-10.86;72.20;98885.66;4883743;29;20508;-62
2021/12/27 04:30:27;;;;;;;1.50;1.13;;;;;;;-10.84;72.49;98872.81;4887321;29;20061;-62
2021/12/27 04:32:54;;;;;;;2.40;1.50;;;;;;;-10.86;72.43;98874.94;4882520;29;20155;-63
2021/12/27 04:35:24;;;;;;;4.50;1.45;;;;;;;-10.93;71.72;98882.16;4882491;29;20049;-62
2021/12/27 04:37:52;;;;;;;1.35;0.90;;;;;;;-10.93;72.14;98879.47;4883437;29;20537;-62
2021/12/27 04:40:22;;;;;;;3.25;1.98;;;;;;;-10.98;72.65;98882.00;4882258;29;20056;-63
2021/12/27 04:42:59;;;;;;;1.88;1.55;;;;;;;-11.00;72.03;98877.84;4883403;29;20060;-63
2021/12/27 04:45:26;;;;;;;3.72;2.10;;;;;;;-11.05;72.05;98896.47;4882487;29;20071;-62
2021/12/27 04:47:53;;;;;;;2.60;1.33;;;;;;;-11.06;72.88;98890.28;4883428;29;20052;-63
2021/12/27 04:50:21;;;;;;;8.80;2.55;;;;;;;-11.05;72.55;98897.28;4882597;29;20053;-61
2021/12/27 04:52:50;;;;;;;1.52;1.27;;;;;;;-11.01;72.64;98901.22;4883798;29;20052;-63
2021/12/27 04:55:17;;;;;;;9.95;2.63;;;;;;;-11.03;72.31;98905.97;4889958;29;20061;-63
2021/12/27 04:57:44;;;;;;;4.50;2.22;;;;;;;-11.01;72.88;98914.63;4881344;29;20144;-63
2021/12/27 05:00:12;;;;;;;3.10;1.95;;;;;;;-11.02;72.25;98912.16;4882596;29;20065;-62
2021/12/27 05:02:39;;;;;;;4.65;2.50;;;;;;;-11.02;72.87;98906.78;4881764;29;20056;-62
2021/12/27 05:05:06;;;;;;;5.32;2.28;;;;;;;-11.05;71.80;98920.63;4882612;29;20052;-61
2021/12/27 05:07:33;;;;;;;4.32;2.13;;;;;;;-11.11;71.63;98924.16;4881836;29;20147;-62
2021/12/27 05:10:00;;;;;;;3.17;1.35;;;;;;;-11.13;71.83;98916.31;4882035;29;20135;-64
2021/12/27 05:12:28;;;;;;;5.38;2.85;;;;;;;-11.16;72.48;98924.78;4895816;29;20053;-61
2021/12/27 05:14:55;;;;;;;2.55;1.40;;;;;;;-11.12;72.73;98926.00;4883117;29;20511;-62
2021/12/27 05:17:22;;;;;;;1.75;1.10;;;;;;;-11.12;72.35;98931.38;4883989;29;20478;-61
2021/12/27 05:19:49;;;;;;;2.45;1.40;;;;;;;-11.16;71.98;98932.00;4883114;29;20076;-61
2021/12/27 05:22:17;;;;;;;3.38;2.05;;;;;;;-11.15;72.52;98939.84;4881567;29;20053;-57
2021/12/27 05:24:43;;;;;;;5.03;2.20;;;;;;;-11.10;72.73;98937.38;4882856;29;20621;-60
2021/12/27 05:27:10;;;;;;;4.63;1.38;;;;;;;-11.12;72.54;98952.84;4881739;29;20509;-62
2021/12/27 05:29:38;;;;;;;5.13;1.85;;;;;;;-11.14;72.66;98951.44;4887300;29;20056;-62
2021/12/27 05:32:05;;;;;;;6.50;1.92;;;;;;;-11.11;71.89;98951.81;4890988;29;20444;-62
2021/12/27 05:34:35;;;;;;;3.60;2.45;;;;;;;-11.03;72.64;98948.91;4882776;29;20049;-63
2021/12/27 05:37:03;;;;;;;3.67;2.47;;;;;;;-10.99;72.24;98960.88;4888876;29;20087;-62
2021/12/27 05:39:31;;;;;;;7.18;1.95;;;;;;;-11.03;71.50;98966.88;4882183;29;20060;-62
2021/12/27 05:41:58;;;;;;;3.67;0.82;;;;;;;-11.07;72.51;98968.34;4881323;29;20055;-63
2021/12/27 05:44:25;;;;;;;4.90;2.63;;;;;;;-11.06;71.99;98970.81;4881892;29;20053;-61
2021/12/27 05:46:54;;;;;;;5.35;1.95;;;;;;;-11.00;72.34;98980.72;4881666;29;20445;-64
2021/12/27 05:49:22;;;;;;;11.90;2.45;;;;;;;-11.01;71.74;98984.44;4881679;29;20057;-62
2021/12/27 05:51:49;;;;;;;4.35;2.03;;;;;;;-11.01;72.32;98983.59;4882248;29;20080;-62
2021/12/27 05:54:17;;;;;;;4.00;2.00;;;;;;;-11.09;70.66;98992.72;4881296;29;20458;-63
2021/12/27 05:56:45;;;;;;;4.82;2.47;;;;;;;-11.07;71.78;99005.91;4882313;29;20128;-63
2021/12/27 05:59:16;;;;;;;6.32;2.10;;;;;;;-11.03;71.21;99007.97;4881462;29;20523;-60
2021/12/27 06:01:45;;;;;;;4.45;2.45;;;;;;;-10.98;71.51;99010.88;4882384;29;20520;-61
2021/12/27 06:04:12;;;;;;;1.58;1.02;;;;;;;-10.99;71.37;99009.19;4881552;29;20501;-62
2021/12/27 06:06:39;;;;;;;5.75;2.85;;;;;;;-11.01;71.31;98999.72;4882084;29;20044;-61
2021/12/27 06:09:07;;;;;;;11.38;3.85;;;;;;;-10.99;72.08;99008.41;4880669;29;20080;-62
2021/12/27 06:11:34;;;;;;;3.85;1.77;;;;;;;-10.97;71.93;99011.69;4896273;29;20082;-67
2021/12/27 06:14:01;;;;;;;4.43;1.92;;;;;;;-11.02;71.47;99014.19;4877282;29;20087;-66
2021/12/27 06:16:28;;;;;;;5.78;2.10;;;;;;;-11.06;72.31;99012.94;4883604;29;20044;-67
2021/12/27 06:18:55;;;;;;;5.03;1.65;;;;;;;-11.08;72.47;99021.19;4880005;29;20059;-67
2021/12/27 06:21:23;;;;;;;8.73;2.22;;;;;;;-11.12;71.66;99021.81;4888492;29;20143;-67
2021/12/27 06:23:50;;;;;;;6.22;2.63;;;;;;;-11.09;71.44;99032.13;4884732;29;20121;-68
2021/12/27 06:26:17;;;;;;;5.78;2.08;;;;;;;-11.08;72.31;99031.13;4888513;29;20048;-67
2021/12/27 06:28:46;;;;;;;3.05;1.63;;;;;;;-11.10;71.59;99038.56;4882181;29;20060;-67
2021/12/27 06:31:13;;;;;;;4.85;1.88;;;;;;;-11.08;71.52;99034.63;4886267;29;20049;-66
2021/12/27 06:33:39;;;;;;;3.42;1.42;;;;;;;-11.06;72.13;99039.78;4881528;29;20060;-67
2021/12/27 06:36:07;;;;;;;1.75;0.85;;;;;;;-11.15;70.75;99041.03;4889508;29;20041;-68
2021/12/27 06:38:34;;;;;;;5.18;1.67;;;;;;;-11.16;70.77;99055.47;4882144;29;20505;-68
2021/12/27 06:41:01;;;;;;;3.97;2.10;;;;;;;-11.16;71.29;99048.28;4882083;29;20060;-68
2021/12/27 06:43:30;;;;;;;8.88;2.58;;;;;;;-11.11;71.21;99048.44;4882710;29;20406;-68
2021/12/27 06:46:00;;;;;;;5.80;2.10;;;;;;;-11.07;71.40;99046.19;4883055;29;20041;-68
2021/12/27 06:48:27;;;;;;;3.53;1.98;;;;;;;-11.09;71.55;99057.13;4886050;29;20060;-68
2021/12/27 06:50:54;;;;;;;4.45;2.20;;;;;;;-11.15;71.92;99051.75;4882132;29;20659;-67
2021/12/27 06:53:28;;;;;;;5.03;2.40;;;;;;;-11.14;71.55;99058.81;4883561;29;20436;-67
2021/12/27 06:55:55;;;;;;;;;;;;;;;-11.10;71.28;99051.97;4889065;29;20381;-67
2021/12/27 06:58:22;;;;;;;3.22;1.90;;;;;;;-11.08;71.96;99066.03;4883883;29;19932;-68
2021/12/27 07:00:49;;;;;;;5.38;1.08;;;;;;;-11.02;72.10;99065.19;4879805;29;20136;-68
2021/12/27 07:03:17;;;;;;;3.63;2.08;;;;;;;-11.04;71.06;99067.25;4880989;29;20094;-67
2021/12/27 07:05:44;;;;;;;3.55;2.30;;;;;;;-11.04;71.46;99068.09;4886566;29;20131;-67
2021/12/27 07:08:10;;;;;;;54.45;14.55;;;;;;;-10.95;71.59;99068.69;4880861;29;20425;-67
2021/12/27 07:10:38;;;;;;;4.57;2.67;;;;;;;-10.91;71.86;99069.91;4879959;29;20135;-67
2021/12/27 07:13:06;;;;;;;3.13;1.67;;;;;;;-10.92;70.62;99073.66;4880456;29;20110;-67
2021/12/27 07:15:33;;;;;;;6.10;3.15;;;;;;;-10.92;71.07;99079.84;4886041;29;20053;-67
2021/12/27 07:18:00;;;;;;;3.55;2.08;;;;;;;-10.93;71.06;99072.81;4883795;29;20057;-67
2021/12/27 07:20:27;;;;;;;5.53;2.13;;;;;;;-10.89;71.62;99079.44;4880283;29;20091;-67
2021/12/27 07:22:54;;;;;;;4.25;2.05;;;;;;;-10.86;71.19;99083.56;4879157;29;20057;-66
2021/12/27 07:25:22;;;;;;;3.60;1.50;;;;;;;-10.86;71.21;99083.56;4880955;29;20124;-68
2021/12/27 07:27:49;;;;;;;4.63;2.28;;;;;;;-10.82;70.93;99074.88;4878924;29;20045;-67
2021/12/27 07:30:16;;;;;;;8.98;2.72;;;;;;;-10.75;70.93;99081.06;4883071;29;20632;-67
2021/12/27 07:32:43;;;;;;;2.92;1.52;;;;;;;-10.66;70.93;99090.56;4885490;29;20144;-67
2021/12/27 07:35:10;;;;;;;6.57;2.45;;;;;;;-10.66;71.13;99087.88;4879366;29;20057;-67
2021/12/27 07:37:38;;;;;;;5.50;2.60;;;;;;;-10.63;70.51;99082.06;4885276;29;20045;-67
2021/12/27 07:40:05;;;;;;;4.18;1.95;;;;;;;-10.64;70.93;99093.88;4884209;29;20065;-68
2021/12/27 07:42:32;;;;;;;6.28;2.20;;;;;;;-10.70;70.01;99100.06;4883153;29;20067;-67
2021/12/27 07:44:59;;;;;;;5.63;2.13;;;;;;;-10.71;70.47;99103.81;4884479;29;20140;-67
2021/12/27 07:47:26;;;;;;;5.07;2.22;;;;;;;-10.70;71.06;99105.44;4882697;29;20049;-68
2021/12/27 07:49:53;;;;;;;3.72;2.08;;;;;;;-10.67;70.58;99113.09;4883715;29;20069;-68
2021/12/27 07:52:20;;;;;;;5.68;2.95;;;;;;;-10.64;70.06;99115.34;4890178;29;20420;-69
2021/12/27 07:54:47;;;;;;;7.07;2.90;;;;;;;-10.51;70.59;99109.94;4887844;29;20059;-67
2021/12/27 07:57:14;;;;;;;12.65;2.92;;;;;;;-10.31;69.60;99121.50;4887871;29;20045;-67
2021/12/27 07:59:42;;;;;;;5.30;2.25;;;;;;;-10.34;69.76;99119.22;4882948;29;20049;-67
2021/12/27 08:02:10;;;;;;;4.50;2.10;;;;;;;-10.38;70.23;99126.06;4889830;29;20053;-67
2021/12/27 08:04:37;;;;;;;1.65;1.13;;;;;;;-10.39;69.96;99128.97;4889277;29;20045;-68
2021/12/27 08:07:04;;;;;;;4.35;2.00;;;;;;;-10.45;69.47;99133.31;4884755;29;20053;-67
2021/12/27 08:09:31;;;;;;;7.07;3.03;;;;;;;-10.40;69.82;99138.06;4882513;29;20049;-67
2021/12/27 08:11:59;;;;;;;4.25;1.85;;;;;;;-10.23;69.25;99142.78;4883246;29;20067;-67
2021/12/27 08:14:25;;;;;;;8.07;2.30;;;;;;;-10.21;69.54;99148.78;4890880;29;20416;-67
2021/12/27 08:16:53;;;;;;;4.07;1.75;;;;;;;-9.88;68.12;99136.06;4883125;29;20100;-67
2021/12/27 08:19:20;;;;;;;4.03;2.08;;;;;;;-9.74;67.97;99134.13;4883505;29;20105;-66
2021/12/27 08:21:46;;;;;;;5.82;2.92;;;;;;;-9.78;67.67;99144.47;4883569;29;20053;-66
2021/12/27 08:24:13;;;;;;;3.95;1.80;;;;;;;-9.79;67.73;99140.16;4882154;29;20048;-66
2021/12/27 08:26:41;;;;;;;7.47;3.05;;;;;;;-9.89;68.70;99142.44;4896586;29;20060;-67
2021/12/27 08:29:10;;;;;;;6.18;2.85;;;;;;;-9.83;68.87;99156.94;4883762;29;20101;-67
2021/12/27 08:31:37;;;;;;;3.28;1.88;;;;;;;-9.34;67.85;99135.56;4883192;29;20589;-67
2021/12/27 08:34:04;;;;;;;4.75;2.45;;;;;;;-8.51;66.98;99128.94;4893984;29;20053;-67
2021/12/27 08:36:31;;;;;;;4.82;2.03;;;;;;;-7.98;66.97;99130.03;4882274;29;20059;-68
2021/12/27 08:38:57;;;;;;;5.93;2.53;;;;;;;-7.95;66.30;99129.59;4884141;29;20056;-68
2021/12/27 08:41:28;;;;;;;7.45;2.65;;;;;;;-7.86;65.91;99126.38;4882420;29;20045;-68
2021/12/27 08:43:57;;;;;;;5.85;3.00;;;;;;;-7.87;66.61;99121.22;4882086;29;20053;-67
2021/12/27 08:46:24;;;;;;;7.22;3.08;;;;;;;-8.10;66.88;99124.59;4881737;29;20532;-68
2021/12/27 08:48:51;;;;;;;7.22;2.42;;;;;;;-8.26;67.81;99127.06;4882617;29;20072;-62
2021/12/27 08:51:18;;;;;;;6.88;3.17;;;;;;;-8.37;68.73;99133.19;4882031;29;20421;-64
2021/12/27 08:53:45;;;;;;;8.13;3.70;;;;;;;-8.35;67.92;99131.09;4883512;29;20497;-63
2021/12/27 08:56:12;;;;;;;4.88;3.13;;;;;;;-8.33;67.30;99128.97;4882023;29;20826;-62
2021/12/27 08:58:39;;;;;;;5.63;2.47;;;;;;;-8.47;68.24;99127.47;4883133;29;20057;-62
2021/12/27 09:01:06;;;;;;;7.32;3.17;;;;;;;-8.53;67.30;99125.66;4882313;29;20557;-59
2021/12/27 09:03:34;;;;;;;5.13;2.53;;;;;;;-8.31;67.97;99133.13;4883014;29;20061;-59
2021/12/27 09:06:01;;;;;;;5.97;2.75;;;;;;;-8.07;66.80;99123.31;4881707;29;20505;-58
2021/12/27 09:08:30;;;;;;;6.20;3.33;;;;;;;-7.75;67.52;99127.50;4882373;29;20049;-57
2021/12/27 09:10:58;;;;;;;11.52;4.70;;;;;;;-7.86;67.35;99121.00;4881660;29;20081;-55
2021/12/27 09:13:30;;;;;;;8.60;3.25;;;;;;;-8.01;66.90;99122.41;4882327;29;20118;-59
2021/12/27 09:16:02;;;;;;;9.43;3.05;;;;;;;-8.24;67.28;99125.78;4892938;29;20061;-61
2021/12/27 09:18:31;;;;;;;4.07;2.47;;;;;;;-8.29;67.65;99119.44;4884073;29;20139;-55
2021/12/27 09:20:59;;;;;;;5.18;2.95;;;;;;;-8.16;67.07;99113.84;4895216;29;20523;-59
2021/12/27 09:23:26;;;;;;;2.00;1.35;;;;;;;-8.25;68.01;99120.63;4882166;29;20462;-56
2021/12/27 09:25:53;;;;;;;9.50;3.55;;;;;;;-8.32;67.28;99115.28;4880835;29;20057;-60
2021/12/27 09:28:20;;;;;;;8.23;3.13;;;;;;;-8.37;68.30;99128.63;4881956;29;20556;-59
2021/12/27 09:30:47;;;;;;;5.45;2.85;;;;;;;-8.49;67.83;99130.41;4882540;29;20517;-60
2021/12/27 09:33:14;;;;;;;7.78;2.72;;;;;;;-8.58;67.51;99131.72;4881237;29;20167;-60
2021/12/27 09:35:41;;;;;;;6.45;3.17;;;;;;;-8.69;67.97;99135.13;4882413;29;20052;-58
2021/12/27 09:38:08;;;;;;;8.00;2.85;;;;;;;-8.72;68.18;99134.72;4881072;29;20041;-58
2021/12/27 09:40:35;;;;;;;8.20;3.42;;;;;;;-8.77;68.05;99137.28;4882358;29;20056;-57
2021/12/27 09:43:02;;;;;;;7.63;2.42;;;;;;;-8.85;67.62;99145.63;4881230;29;20060;-54
2021/12/27 09:45:30;;;;;;;6.00;3.05;;;;;;;-8.95;67.72;99131.81;4881105;29;20066;-57
2021/12/27 09:47:57;;;;;;;5.80;2.65;;;;;;;-9.04;68.43;99141.19;4880882;29;20063;-59
2021/12/27 09:50:29;;;;;;;9.45;3.67;;;;;;;-9.08;68.31;99148.88;4882487;29;20416;-58
2021/12/27 09:52:57;;;;;;;4.60;2.28;;;;;;;-9.11;68.58;99145.78;4884856;29;20061;-59
2021/12/27 09:55:27;;;;;;;5.78;2.58;;;;;;;-9.16;68.77;99153.69;4882228;29;20060;-54
2021/12/27 09:57:54;;;;;;;7.15;2.78;;;;;;;-9.23;68.05;99158.28;4880828;29;20057;-58
2021/12/27 10:00:23;;;;;;;5.20;2.60;;;;;;;-9.28;68.25;99150.03;4882371;29;20158;-57
2021/12/27 10:02:55;;;;;;;6.10;2.58;;;;;;;-9.25;68.05;99149.59;4881126;29;20055;-59
2021/12/27 10:05:26;;;;;;;15.77;3.03;;;;;;;-9.24;68.25;99151.28;4882201;29;20068;-58
2021/12/27 10:07:54;;;;;;;;;;;;;;;-9.27;68.31;99151.72;4881419;29;20051;-57
2021/12/27 10:10:36;;;;;;;4.10;2.05;;;;;;;-9.25;68.39;99160.38;4882262;29;19931;-61
2021/12/27 10:13:09;;;;;;;6.22;2.80;;;;;;;-9.28;68.91;99155.41;4881003;29;20069;-58
2021/12/27 10:15:39;;;;;;;3.60;1.40;;;;;;;-9.28;68.12;99158.94;4881948;29;20128;-60
2021/12/27 10:18:17;;;;;;;6.80;3.10;;;;;;;-9.30;68.70;99157.53;4880299;29;20057;-59
2021/12/27 10:20:45;;;;;;;5.95;2.25;;;;;;;-9.32;68.53;99159.59;4881654;29;20148;-59
2021/12/27 10:23:13;;;;;;;8.00;2.70;;;;;;;-9.30;68.33;99160.22;4880238;29;20140;-55
2021/12/27 10:25:39;;;;;;;6.50;2.47;;;;;;;-9.30;68.42;99165.59;4893615;29;20063;-60
2021/12/27 10:28:06;;;;;;;10.68;3.20;;;;;;;-9.29;67.92;99169.94;4880219;29;20497;-67
2021/12/27 10:30:44;;;;;;;9.57;3.35;;;;;;;-9.27;68.46;99162.47;4880923;29;20140;-67
2021/12/27 10:33:23;;;;;;;9.95;3.17;;;;;;;-9.27;68.48;99167.84;4879251;29;20056;-66
2021/12/27 10:35:57;;;;;;;6.75;2.33;;;;;;;-9.26;68.68;99164.13;4880005;29;20061;-67
2021/12/27 10:38:32;;;;;;;8.77;2.92;;;;;;;-9.25;68.11;99168.44;4879730;29;20048;-67
2021/12/27 10:41:11;;;;;;;6.15;2.53;;;;;;;-9.17;68.89;99168.22;4880978;29;20140;-67
2021/12/27 10:43:47;;;;;;;8.48;3.17;;;;;;;-9.15;68.72;99166.13;4879471;29;20466;-66
2021/12/27 10:46:34;;;;;;;10.20;3.60;;;;;;;-9.15;68.71;99172.31;4887777;29;20116;-67
2021/12/27 10:49:01;;;;;;;13.38;3.15;;;;;;;-9.17;68.71;99162.81;4881107;29;20056;-66
2021/12/27 10:51:28;;;;;;;5.03;2.60;;;;;;;-9.16;68.00;99167.16;4880403;29;20063;-67
2021/12/27 10:53:59;;;;;;;12.52;3.28;;;;;;;-9.19;68.57;99175.66;4881412;29;20068;-67
2021/12/27 10:56:27;;;;;;;;;;;;;;;-9.22;69.02;99176.94;4884159;29;20525;-66
2021/12/27 10:59:00;;;;;;;6.43;3.05;;;;;;;-9.19;68.89;99176.50;4899232;29;19935;-67
2021/12/27 11:01:28;;;;;;;7.05;2.75;;;;;;;-9.17;69.06;99173.59;4884820;29;20104;-67
2021/12/27 11:04:01;;;;;;;10.18;3.88;;;;;;;-9.14;68.38;99170.47;4895084;29;20052;-67
2021/12/27 11:06:30;;;;;;;8.10;3.42;;;;;;;-9.14;69.06;99167.78;4877995;29;20139;-66
2021/12/27 11:08:58;;;;;;;7.28;3.05;;;;;;;-9.10;68.87;99168.97;4881202;29;20520;-68
2021/12/27 11:11:26;;;;;;;9.02;3.35;;;;;;;-9.04;69.25;99168.13;4884446;29;20060;-68
2021/12/27 11:13:58;;;;;;;6.82;3.78;;;;;;;-9.05;68.87;99172.69;4893713;29;20524;-67
2021/12/27 11:16:26;;;;;;;6.85;3.38;;;;;;;-9.08;68.93;99172.28;4893804;23;20060;-67
2021/12/27 11:18:55;;;;;;;10.55;3.47;;;;;;;-9.13;69.41;99181.03;4929044;29;20040;-66
2021/12/27 11:21:24;;;;;;;7.15;3.03;;;;;;;-9.15;69.20;99176.91;4933918;29;20047;-66
2021/12/27 11:23:53;;;;;;;9.18;2.63;;;;;;;-9.17;69.09;99170.91;4934114;29;20056;-66
2021/12/27 11:26:30;;;;;;;6.32;3.08;;;;;;;-9.21;69.30;99177.78;4932396;29;20055;-66
2021/12/27 11:29:14;;;;;;;5.50;1.63;;;;;;;-9.19;69.02;99181.06;4934295;29;20571;-67
2021/12/27 11:31:43;;;;;;;6.80;3.10;;;;;;;-9.18;69.28;99177.34;4934193;29;20396;-67
2021/12/27 11:34:13;;;;;;;6.53;3.05;;;;;;;-9.14;68.87;99173.16;4934342;29;20062;-67
2021/12/27 11:36:57;;;;;;;11.95;3.83;;;;;;;-9.09;68.86;99176.84;4934305;29;20052;-66
2021/12/27 11:39:25;;;;;;;5.82;3.00;;;;;;;-9.01;68.88;99183.84;4930515;29;20082;-66
2021/12/27 11:42:05;;;;;;;7.38;2.90;;;;;;;-8.90;68.99;99183.16;4919613;29;20083;-65